createdAt,value
2019-05-20T00:01:02.404Z,12.10
2019-05-20T00:03:43.760Z,12.10
2019-05-20T00:06:12.924Z,12.10
2019-05-20T00:09:01.167Z,12.10
2019-05-20T00:11:49.412Z,12.10
2019-05-20T00:14:30.505Z,12.00
2019-05-20T00:17:11.110Z,12.00
2019-05-20T00:19:51.774Z,11.90
2019-05-20T00:22:32.192Z,11.90
2019-05-20T00:25:12.897Z,12.00
2019-05-20T00:27:53.526Z,11.90
2019-05-20T00:30:34.248Z,12.00
2019-05-20T00:33:14.943Z,11.90
2019-05-20T00:35:55.508Z,11.90
2019-05-20T00:38:36.742Z,11.90
2019-05-20T00:41:17.434Z,11.90
2019-05-20T00:43:57.894Z,11.90
2019-05-20T00:46:38.710Z,11.80
2019-05-20T00:49:19.328Z,11.70
2019-05-20T00:51:59.880Z,11.70
2019-05-20T00:54:40.642Z,11.70
2019-05-20T00:57:21.167Z,11.70
2019-05-20T01:00:02.667Z,11.70
2019-05-20T01:02:56.040Z,11.70
2019-05-20T01:05:26.670Z,11.70
2019-05-20T01:08:07.285Z,11.70
2019-05-20T01:14:04.317Z,11.70
2019-05-20T01:16:45.016Z,11.70
2019-05-20T01:19:25.921Z,11.60
2019-05-20T01:22:07.345Z,11.60
2019-05-20T01:24:48.051Z,11.60
2019-05-20T01:27:28.729Z,11.60
2019-05-20T01:30:10.102Z,11.60
2019-05-20T01:32:50.980Z,11.60
2019-05-20T01:35:31.446Z,11.60
2019-05-20T01:38:12.005Z,11.60
2019-05-20T01:40:52.396Z,11.60
2019-05-20T01:43:33.096Z,11.60
2019-05-20T01:46:13.480Z,11.60
2019-05-20T01:48:54.423Z,11.60
2019-05-20T01:51:35.113Z,11.60
2019-05-20T01:54:15.716Z,11.60
2019-05-20T01:56:56.397Z,11.60
2019-05-20T01:59:36.929Z,11.60
2019-05-20T02:02:17.885Z,11.60
2019-05-20T02:04:58.396Z,11.60
2019-05-20T02:07:39.196Z,11.60
2019-05-20T02:10:20.601Z,11.60
2019-05-20T02:13:01.458Z,11.60
2019-05-20T02:18:57.314Z,11.60
2019-05-20T02:21:38.243Z,11.60
2019-05-20T02:24:19.016Z,11.60
2019-05-20T02:26:59.609Z,11.60
2019-05-20T02:29:40.657Z,11.60
2019-05-20T02:32:21.379Z,11.60
2019-05-20T02:35:02.287Z,11.50
2019-05-20T02:37:43.601Z,11.50
2019-05-20T02:40:24.197Z,11.50
2019-05-20T02:43:04.889Z,11.50
2019-05-20T02:45:45.295Z,11.40
2019-05-20T02:48:26.677Z,11.40
2019-05-20T02:51:07.397Z,11.40
2019-05-20T02:53:48.653Z,11.40
2019-05-20T02:56:29.292Z,11.40
2019-05-20T02:59:10.573Z,11.40
2019-05-20T03:01:51.133Z,11.40
2019-05-20T03:04:31.485Z,11.40
2019-05-20T03:07:11.971Z,11.40
2019-05-20T03:09:52.845Z,11.40
2019-05-20T03:12:34.042Z,11.40
2019-05-20T03:15:14.946Z,11.30
2019-05-20T03:17:55.637Z,11.30
2019-05-20T03:20:36.477Z,11.30
2019-05-20T03:23:17.425Z,11.20
2019-05-20T03:25:57.968Z,11.20
2019-05-20T03:28:38.342Z,11.20
2019-05-20T03:31:19.156Z,11.20
2019-05-20T03:34:00.294Z,11.20
2019-05-20T03:36:40.734Z,11.20
2019-05-20T03:39:21.393Z,11.20
2019-05-20T03:42:02.010Z,11.20
2019-05-20T03:44:42.542Z,11.10
2019-05-20T03:47:23.124Z,11.10
2019-05-20T03:50:03.760Z,11.10
2019-05-20T03:52:44.199Z,11.20
2019-05-20T03:55:24.971Z,11.10
2019-05-20T03:58:05.586Z,11.10
2019-05-20T04:00:46.817Z,11.10
2019-05-20T04:03:27.471Z,11.00
2019-05-20T04:06:08.409Z,11.00
2019-05-20T04:08:49.444Z,11.00
2019-05-20T04:11:30.173Z,11.00
2019-05-20T04:14:10.806Z,11.00
2019-05-20T04:16:52.347Z,11.00
2019-05-20T04:19:32.986Z,10.90
2019-05-20T04:22:13.655Z,10.90
2019-05-20T04:24:54.628Z,10.90
2019-05-20T04:27:35.230Z,10.90
2019-05-20T04:30:18.908Z,10.90
2019-05-20T04:32:58.343Z,10.90
2019-05-20T04:35:38.987Z,10.90
2019-05-20T04:38:19.895Z,10.90
2019-05-20T04:41:00.550Z,10.90
2019-05-20T04:43:41.230Z,10.90
2019-05-20T04:46:22.047Z,11.00
2019-05-20T04:49:02.667Z,11.00
2019-05-20T04:51:43.404Z,11.00
2019-05-20T04:54:23.954Z,11.00
2019-05-20T04:57:04.802Z,11.00
2019-05-20T04:59:45.488Z,11.00
2019-05-20T05:02:26.051Z,11.00
2019-05-20T05:05:06.665Z,11.00
2019-05-20T05:07:47.091Z,11.00
2019-05-20T05:10:16.270Z,11.00
2019-05-20T05:13:04.434Z,11.00
2019-05-20T05:15:45.402Z,11.00
2019-05-20T05:18:26.384Z,10.90
2019-05-20T05:21:07.086Z,10.90
2019-05-20T05:23:58.824Z,10.80
2019-05-20T05:26:30.458Z,10.80
2019-05-20T05:29:11.193Z,10.80
2019-05-20T05:31:51.927Z,10.70
2019-05-20T05:34:32.482Z,10.80
2019-05-20T05:37:13.396Z,10.80
2019-05-20T05:39:54.322Z,10.90
2019-05-20T05:42:35.157Z,10.90
2019-05-20T05:45:16.681Z,11.00
2019-05-20T05:47:57.396Z,11.00
2019-05-20T05:50:38.248Z,11.10
2019-05-20T05:53:18.707Z,11.10
2019-05-20T05:55:59.322Z,11.10
2019-05-20T05:58:40.123Z,11.10
2019-05-20T06:01:20.810Z,11.10
2019-05-20T06:04:01.184Z,11.20
2019-05-20T06:06:41.799Z,11.20
2019-05-20T06:09:22.446Z,11.20
2019-05-20T06:12:03.332Z,11.20
2019-05-20T06:14:43.991Z,11.20
2019-05-20T06:17:24.811Z,11.30
2019-05-20T06:20:05.276Z,11.20
2019-05-20T06:22:46.057Z,11.20
2019-05-20T06:25:28.005Z,11.20
2019-05-20T06:28:08.866Z,11.20
2019-05-20T06:30:49.726Z,11.30
2019-05-20T06:33:30.618Z,11.30
2019-05-20T06:36:24.588Z,11.20
2019-05-20T06:39:12.949Z,11.20
2019-05-20T06:41:53.449Z,11.30
2019-05-20T06:44:34.110Z,11.40
2019-05-20T06:47:14.983Z,11.40
2019-05-20T06:49:55.721Z,11.40
2019-05-20T06:52:36.585Z,11.50
2019-05-20T06:55:17.285Z,11.50
2019-05-20T06:57:58.084Z,11.50
2019-05-20T07:00:38.831Z,11.50
2019-05-20T07:03:19.518Z,11.50
2019-05-20T07:06:00.121Z,11.60
2019-05-20T07:08:40.788Z,11.70
2019-05-20T07:11:21.534Z,11.80
2019-05-20T07:14:02.122Z,11.80
2019-05-20T07:16:43.171Z,11.90
2019-05-20T07:19:23.787Z,11.90
2019-05-20T07:22:04.397Z,11.90
2019-05-20T07:24:45.097Z,11.90
2019-05-20T07:27:25.571Z,12.00
2019-05-20T07:30:06.401Z,12.00
2019-05-20T07:32:47.118Z,12.00
2019-05-20T07:35:30.840Z,12.00
2019-05-20T07:38:10.940Z,12.00
2019-05-20T07:40:51.941Z,12.00
2019-05-20T07:43:32.591Z,12.00
2019-05-20T07:46:13.106Z,12.00
2019-05-20T07:48:53.771Z,12.00
2019-05-20T07:51:34.580Z,11.90
2019-05-20T07:54:15.042Z,11.90
2019-05-20T07:56:55.904Z,11.80
2019-05-20T07:59:36.335Z,11.80
2019-05-20T08:02:17.135Z,11.90
2019-05-20T08:04:57.714Z,11.90
2019-05-20T08:10:18.292Z,11.90
2019-05-20T08:12:59.018Z,11.90
2019-05-20T08:15:39.914Z,11.80
2019-05-20T08:18:20.665Z,11.80
2019-05-20T08:21:01.414Z,11.80
2019-05-20T08:23:42.203Z,11.80
2019-05-20T08:26:22.849Z,11.90
2019-05-20T08:29:03.513Z,11.90
2019-05-20T08:31:44.537Z,11.80
2019-05-20T08:34:25.227Z,11.80
2019-05-20T08:37:05.882Z,11.80
2019-05-20T08:39:46.464Z,11.90
2019-05-20T08:42:27.226Z,11.90
2019-05-20T08:45:08.054Z,11.90
2019-05-20T08:47:48.971Z,11.90
2019-05-20T08:50:30.068Z,12.00
2019-05-20T08:53:10.605Z,12.00
2019-05-20T08:55:51.649Z,12.00
2019-05-20T08:58:32.178Z,12.00
2019-05-20T09:01:13.465Z,11.90
2019-05-20T09:03:54.224Z,11.90
2019-05-20T09:06:35.504Z,11.90
2019-05-20T09:09:16.379Z,12.00
2019-05-20T09:11:56.942Z,12.00
2019-05-20T09:14:40.464Z,11.90
2019-05-20T09:17:19.881Z,12.00
2019-05-20T09:20:01.019Z,12.00
2019-05-20T09:22:42.025Z,12.00
2019-05-20T09:25:22.887Z,12.10
2019-05-20T09:28:03.784Z,12.10
2019-05-20T09:30:44.346Z,12.10
2019-05-20T09:33:25.208Z,12.10
2019-05-20T09:36:05.943Z,12.10
2019-05-20T09:38:46.540Z,12.10
2019-05-20T09:41:27.309Z,12.00
2019-05-20T09:44:08.137Z,12.00
2019-05-20T09:46:49.352Z,12.00
2019-05-20T09:49:30.018Z,12.00
2019-05-20T09:52:11.270Z,11.90
2019-05-20T09:54:51.641Z,11.90
2019-05-20T09:57:32.566Z,11.90
2019-05-20T10:00:13.544Z,12.00
2019-05-20T10:02:54.297Z,12.00
2019-05-20T10:05:37.201Z,11.90
2019-05-20T10:08:34.480Z,12.00
2019-05-20T10:11:00.608Z,12.10
2019-05-20T10:13:42.221Z,12.20
2019-05-20T10:16:22.968Z,12.30
2019-05-20T10:19:03.649Z,12.30
2019-05-20T10:21:44.047Z,12.20
2019-05-20T10:24:25.063Z,12.20
2019-05-20T10:27:05.942Z,12.10
2019-05-20T10:29:46.462Z,12.10
2019-05-20T10:32:27.183Z,12.00
2019-05-20T10:35:07.775Z,12.10
2019-05-20T10:37:48.638Z,12.20
2019-05-20T10:40:29.589Z,12.20
2019-05-20T10:43:10.148Z,12.10
2019-05-20T10:45:50.651Z,12.10
2019-05-20T10:48:31.274Z,12.00
2019-05-20T10:51:11.878Z,12.10
2019-05-20T10:53:55.795Z,12.10
2019-05-20T10:56:36.433Z,12.20
2019-05-20T10:59:17.517Z,12.20
2019-05-20T11:01:58.286Z,12.20
2019-05-20T11:04:39.247Z,12.30
2019-05-20T11:07:19.842Z,12.30
2019-05-20T11:10:00.450Z,12.30
2019-05-20T11:12:41.370Z,12.40
2019-05-20T11:15:22.282Z,12.40
2019-05-20T11:18:02.790Z,12.40
2019-05-20T11:20:43.424Z,12.40
2019-05-20T11:23:24.086Z,12.50
2019-05-20T11:26:04.878Z,12.50
2019-05-20T11:28:45.365Z,12.50
2019-05-20T11:31:26.509Z,12.50
2019-05-20T11:34:07.385Z,12.50
2019-05-20T11:36:48.715Z,12.40
2019-05-20T11:39:33.725Z,12.40
2019-05-20T11:42:11.867Z,12.40
2019-05-20T11:44:52.455Z,12.50
2019-05-20T11:47:33.365Z,12.50
2019-05-20T11:50:14.252Z,12.60
2019-05-20T11:52:55.031Z,12.60
2019-05-20T11:55:35.781Z,12.70
2019-05-20T11:58:16.813Z,12.80
2019-05-20T12:00:58.213Z,12.80
2019-05-20T12:03:39.290Z,12.70
2019-05-20T12:06:20.162Z,12.70
2019-05-20T12:09:01.135Z,12.70
2019-05-20T12:11:41.757Z,12.80
2019-05-20T12:14:22.639Z,12.80
2019-05-20T12:17:03.437Z,12.90
2019-05-20T12:19:44.405Z,12.90
2019-05-20T12:22:25.186Z,12.90
2019-05-20T12:25:06.090Z,12.80
2019-05-20T12:27:47.330Z,12.80
2019-05-20T12:30:27.677Z,12.50
2019-05-20T12:33:18.484Z,12.50
2019-05-20T12:35:51.389Z,12.50
2019-05-20T12:38:32.084Z,12.50
2019-05-20T12:41:12.915Z,12.50
2019-05-20T12:44:10.828Z,12.50
2019-05-20T12:46:36.368Z,12.50
2019-05-20T12:49:17.100Z,12.40
2019-05-20T12:51:57.894Z,12.50
2019-05-20T12:54:38.635Z,12.60
2019-05-20T12:57:19.318Z,12.50
2019-05-20T13:00:00.280Z,12.60
2019-05-20T13:02:40.860Z,12.70
2019-05-20T13:05:21.767Z,12.70
2019-05-20T13:08:02.597Z,12.70
2019-05-20T13:10:43.297Z,12.70
2019-05-20T13:13:24.004Z,12.70
2019-05-20T13:16:04.743Z,12.70
2019-05-20T13:18:55.577Z,12.70
2019-05-20T13:21:27.992Z,12.90
2019-05-20T13:24:09.019Z,12.80
2019-05-20T13:26:49.673Z,12.70
2019-05-20T13:29:30.289Z,12.70
2019-05-20T13:32:11.444Z,12.60
2019-05-20T13:34:52.254Z,12.60
2019-05-20T13:37:32.694Z,12.50
2019-05-20T13:40:13.149Z,12.40
2019-05-20T13:42:53.606Z,12.30
2019-05-20T13:45:34.317Z,12.20
2019-05-20T13:48:15.203Z,12.10
2019-05-20T13:50:56.013Z,12.20
2019-05-20T13:53:36.729Z,12.20
2019-05-20T13:56:17.469Z,12.20
2019-05-20T13:58:58.215Z,12.20
2019-05-20T14:01:38.846Z,12.20
2019-05-20T14:04:19.611Z,12.30
2019-05-20T14:07:00.362Z,12.20
2019-05-20T14:09:41.530Z,12.30
2019-05-20T14:12:22.234Z,12.20
2019-05-20T14:15:02.930Z,12.10
2019-05-20T14:17:44.241Z,12.10
2019-05-20T14:20:24.990Z,12.00
2019-05-20T14:23:05.476Z,12.00
2019-05-20T14:25:46.291Z,11.90
2019-05-20T14:28:27.185Z,11.90
2019-05-20T14:31:07.862Z,11.80
2019-05-20T14:33:48.511Z,11.70
2019-05-20T14:36:39.423Z,11.70
2019-05-20T14:39:12.005Z,11.60
2019-05-20T14:41:52.671Z,11.60
2019-05-20T14:44:33.478Z,11.70
2019-05-20T14:47:14.220Z,11.70
2019-05-20T14:49:55.002Z,11.80
2019-05-20T14:52:35.926Z,11.70
2019-05-20T14:55:16.961Z,11.60
2019-05-20T14:57:57.656Z,11.60
2019-05-20T15:00:38.274Z,11.60
2019-05-20T15:03:19.450Z,11.50
2019-05-20T15:06:00.257Z,11.50
2019-05-20T15:08:41.078Z,11.50
2019-05-20T15:11:37.042Z,11.50
2019-05-20T15:14:04.881Z,11.50
2019-05-20T15:16:45.545Z,11.50
2019-05-20T15:19:26.535Z,11.40
2019-05-20T15:22:07.250Z,11.50
2019-05-20T15:24:49.129Z,11.40
2019-05-20T15:27:30.204Z,11.40
2019-05-20T15:30:10.798Z,11.40
2019-05-20T15:32:54.638Z,11.40
2019-05-20T15:38:13.260Z,11.30
2019-05-20T15:40:53.936Z,11.30
2019-05-20T15:43:34.796Z,11.20
2019-05-20T15:46:15.610Z,11.10
2019-05-20T15:48:56.496Z,11.10
2019-05-20T15:51:37.270Z,11.10
2019-05-20T15:54:18.213Z,11.10
2019-05-20T15:56:59.064Z,11.10
2019-05-20T15:59:46.026Z,11.10
2019-05-20T16:02:23.393Z,11.10
2019-05-20T16:05:04.328Z,11.20
2019-05-20T16:07:44.877Z,11.20
2019-05-20T16:10:25.702Z,11.10
2019-05-20T16:13:06.374Z,11.10
2019-05-20T16:15:47.082Z,11.10
2019-05-20T16:18:27.922Z,11.10
2019-05-20T16:21:08.871Z,11.00
2019-05-20T16:23:49.802Z,11.10
2019-05-20T16:26:30.867Z,11.10
2019-05-20T16:29:11.773Z,11.10
2019-05-20T16:31:52.544Z,11.10
2019-05-20T16:34:33.582Z,11.00
2019-05-20T16:37:14.208Z,11.00
2019-05-20T16:39:55.033Z,11.00
2019-05-20T16:42:36.081Z,11.00
2019-05-20T16:45:16.951Z,11.10
2019-05-20T16:47:57.744Z,11.10
2019-05-20T16:50:38.350Z,11.00
2019-05-20T16:53:18.917Z,11.00
2019-05-20T16:56:00.514Z,11.00
2019-05-20T16:58:41.455Z,10.90
2019-05-20T17:01:22.024Z,11.00
2019-05-20T17:04:02.533Z,10.90
2019-05-20T17:06:43.255Z,11.00
2019-05-20T17:09:12.222Z,10.90
2019-05-20T17:12:00.377Z,10.90
2019-05-20T17:14:40.789Z,10.90
2019-05-20T17:17:21.550Z,10.80
2019-05-20T17:20:02.103Z,10.80
2019-05-20T17:22:42.625Z,10.80
2019-05-20T17:25:23.919Z,10.90
2019-05-20T17:28:05.054Z,10.90
2019-05-20T17:30:46.201Z,10.90
2019-05-20T17:33:26.722Z,10.90
2019-05-20T17:36:07.283Z,10.80
2019-05-20T17:38:47.953Z,10.80
2019-05-20T17:41:28.775Z,10.80
2019-05-20T17:44:09.309Z,10.70
2019-05-20T17:46:49.906Z,10.70
2019-05-20T17:49:30.696Z,10.70
2019-05-20T17:52:11.449Z,10.70
2019-05-20T17:54:52.032Z,10.70
2019-05-20T17:57:32.729Z,10.70
2019-05-20T18:00:18.184Z,10.80
2019-05-20T18:02:59.139Z,10.70
2019-05-20T18:05:39.777Z,10.70
2019-05-20T18:08:21.420Z,10.70
2019-05-20T18:11:02.535Z,10.70
2019-05-20T18:13:43.380Z,10.70
2019-05-20T18:16:24.661Z,10.60
2019-05-20T18:19:05.317Z,10.60
2019-05-20T18:21:46.100Z,10.60
2019-05-20T18:24:26.860Z,10.60
2019-05-20T18:27:06.841Z,10.60
2019-05-20T18:29:48.148Z,10.60
2019-05-20T18:32:28.769Z,10.50
2019-05-20T18:35:09.273Z,10.50
2019-05-20T18:37:50.321Z,10.50
2019-05-20T18:40:30.919Z,10.50
2019-05-20T18:43:11.417Z,10.40
2019-05-20T18:45:52.049Z,10.40
2019-05-20T18:48:32.752Z,10.40
2019-05-20T18:51:13.387Z,10.40
2019-05-20T18:53:54.665Z,10.40
2019-05-20T18:56:35.125Z,10.40
2019-05-20T18:59:15.555Z,10.40
2019-05-20T19:02:05.084Z,10.50
2019-05-20T19:04:39.066Z,10.50
2019-05-20T19:07:26.007Z,10.50
2019-05-20T19:10:06.455Z,10.40
2019-05-20T19:12:47.478Z,10.50
2019-05-20T19:15:28.271Z,10.40
2019-05-20T19:18:09.618Z,10.40
2019-05-20T19:20:50.452Z,10.40
2019-05-20T19:23:31.241Z,10.40
2019-05-20T19:26:23.837Z,10.30
2019-05-20T19:28:54.651Z,10.30
2019-05-20T19:31:35.595Z,10.20
2019-05-20T19:34:16.309Z,10.20
2019-05-20T19:36:57.385Z,10.20
2019-05-20T19:39:38.306Z,10.20
2019-05-20T19:42:19.496Z,10.20
2019-05-20T19:45:00.474Z,10.20
2019-05-20T19:47:41.266Z,10.20
2019-05-20T19:50:22.082Z,10.20
2019-05-20T19:53:02.801Z,10.20
2019-05-20T19:55:43.586Z,10.20
2019-05-20T19:58:24.339Z,10.20
2019-05-20T20:01:05.029Z,10.20
2019-05-20T20:03:45.959Z,10.20
2019-05-20T20:06:26.902Z,10.20
2019-05-20T20:09:07.762Z,10.20
2019-05-20T20:11:48.596Z,10.20
2019-05-20T20:14:29.345Z,10.20
2019-05-20T20:17:10.097Z,10.20
2019-05-20T20:19:50.944Z,10.20
2019-05-20T20:22:31.801Z,10.20
2019-05-20T20:25:12.270Z,10.20
2019-05-20T20:27:53.037Z,10.20
2019-05-20T20:30:33.802Z,10.20
2019-05-20T20:33:14.486Z,10.20
2019-05-20T20:35:55.200Z,10.20
2019-05-20T20:38:36.100Z,10.20
2019-05-20T20:41:16.889Z,10.20
2019-05-20T20:43:57.551Z,10.20
2019-05-20T20:46:40.555Z,10.20
2019-05-20T20:49:21.187Z,10.20
2019-05-20T20:52:02.037Z,10.20
2019-05-20T20:54:42.704Z,10.20
2019-05-20T20:57:23.447Z,10.30
2019-05-20T21:00:04.196Z,10.30
2019-05-20T21:02:53.279Z,10.30
2019-05-20T21:05:28.290Z,10.30
2019-05-20T21:08:09.183Z,10.30
2019-05-20T21:10:49.874Z,10.20
2019-05-20T21:13:30.555Z,10.20
2019-05-20T21:16:11.240Z,10.20
2019-05-20T21:18:51.991Z,10.30
2019-05-20T21:21:32.776Z,10.30
2019-05-20T21:24:13.425Z,10.30
2019-05-20T21:26:54.501Z,10.30
2019-05-20T21:29:35.453Z,10.30
2019-05-20T21:32:16.128Z,10.30
2019-05-20T21:34:57.152Z,10.20
2019-05-20T21:37:37.985Z,10.20
2019-05-20T21:40:18.572Z,10.20
2019-05-20T21:42:59.695Z,10.30
2019-05-20T21:45:40.263Z,10.20
2019-05-20T21:48:20.934Z,10.30
2019-05-20T21:51:01.964Z,10.20
2019-05-20T21:53:42.825Z,10.30
2019-05-20T21:56:23.560Z,10.30
2019-05-20T21:59:04.233Z,10.30
2019-05-20T22:01:45.272Z,10.20
2019-05-20T22:04:26.225Z,10.30
2019-05-20T22:07:07.017Z,10.30
2019-05-20T22:09:47.782Z,10.20
2019-05-20T22:12:28.514Z,10.20
2019-05-20T22:15:09.257Z,10.20
2019-05-20T22:17:50.260Z,10.20
2019-05-20T22:20:30.950Z,10.20
2019-05-20T22:23:30.510Z,10.20
2019-05-20T22:26:10.918Z,10.20
2019-05-20T22:28:51.553Z,10.20
2019-05-20T22:31:32.232Z,10.20
2019-05-20T22:34:13.013Z,10.20
2019-05-20T22:36:53.612Z,10.20
2019-05-20T22:39:34.376Z,10.20
2019-05-20T22:42:15.244Z,10.10
2019-05-20T22:44:55.935Z,10.20
2019-05-20T22:47:36.775Z,10.20
2019-05-20T22:50:17.515Z,10.20
2019-05-20T22:52:58.766Z,10.20
2019-05-20T22:55:39.694Z,10.20
2019-05-20T22:58:20.309Z,10.20
2019-05-20T23:01:01.273Z,10.20
2019-05-20T23:03:55.390Z,10.20
2019-05-20T23:06:24.688Z,10.20
2019-05-20T23:09:05.905Z,10.20
2019-05-20T23:11:46.993Z,10.10
2019-05-20T23:14:27.673Z,10.20
2019-05-20T23:17:08.417Z,10.20
2019-05-20T23:19:49.033Z,10.20
2019-05-20T23:22:30.423Z,10.20
2019-05-20T23:25:10.846Z,10.20
2019-05-20T23:27:51.448Z,10.20
2019-05-20T23:30:32.846Z,10.20
2019-05-20T23:33:13.437Z,10.20
2019-05-20T23:35:53.840Z,10.20
2019-05-20T23:38:34.766Z,10.20
2019-05-20T23:41:15.200Z,10.20
2019-05-20T23:43:55.961Z,10.20
2019-05-20T23:46:36.565Z,10.30
2019-05-20T23:49:17.010Z,10.30
2019-05-20T23:51:57.930Z,10.30
2019-05-20T23:54:38.368Z,10.40
2019-05-20T23:57:18.910Z,10.30
2019-05-20T23:59:59.802Z,10.30
